sensor_id;sensor_type;location;lat;lon;timestamp;P1;durP1;ratioP1;P2;durP2;ratioP2
83404;SDS011;73331;48.168;20.776;2023-11-18T00:00:20;2.72;;;2.00;;
83404;SDS011;73331;48.168;20.776;2023-11-18T00:01:50;4.10;;;1.98;;
83404;SDS011;73331;48.168;20.776;2023-11-18T00:03:21;3.88;;;2.45;;
83404;SDS011;73331;48.168;20.776;2023-11-18T00:04:52;5.35;;;2.65;;
83404;SDS011;73331;48.168;20.776;2023-11-18T00:06:22;5.10;;;3.00;;
83404;SDS011;73331;48.168;20.776;2023-11-18T00:07:53;3.20;;;2.55;;
83404;SDS011;73331;48.168;20.776;2023-11-18T00:09:24;4.35;;;2.33;;
83404;SDS011;73331;48.168;20.776;2023-11-18T00:10:55;5.53;;;2.33;;
83404;SDS011;73331;48.168;20.776;2023-11-18T00:12:25;5.70;;;2.70;;
83404;SDS011;73331;48.168;20.776;2023-11-18T00:13:56;3.65;;;2.47;;
83404;SDS011;73331;48.168;20.776;2023-11-18T00:15:27;7.40;;;3.22;;
83404;SDS011;73331;48.168;20.776;2023-11-18T00:16:57;5.07;;;2.75;;
83404;SDS011;73331;48.168;20.776;2023-11-18T00:18:29;7.13;;;3.22;;
83404;SDS011;73331;48.168;20.776;2023-11-18T00:20:02;3.35;;;2.03;;
83404;SDS011;73331;48.168;20.776;2023-11-18T00:21:39;4.97;;;2.33;;
83404;SDS011;73331;48.168;20.776;2023-11-18T00:23:10;2.45;;;1.98;;
83404;SDS011;73331;48.168;20.776;2023-11-18T00:24:40;3.92;;;1.92;;
83404;SDS011;73331;48.168;20.776;2023-11-18T00:26:11;3.97;;;2.45;;
83404;SDS011;73331;48.168;20.776;2023-11-18T00:27:43;4.60;;;2.33;;
83404;SDS011;73331;48.168;20.776;2023-11-18T00:29:14;4.47;;;1.90;;
83404;SDS011;73331;48.168;20.776;2023-11-18T00:30:44;3.90;;;2.03;;
83404;SDS011;73331;48.168;20.776;2023-11-18T00:32:15;3.75;;;1.50;;
83404;SDS011;73331;48.168;20.776;2023-11-18T00:33:46;4.07;;;2.22;;
83404;SDS011;73331;48.168;20.776;2023-11-18T00:35:17;4.75;;;2.15;;
83404;SDS011;73331;48.168;20.776;2023-11-18T00:36:48;3.95;;;1.90;;
83404;SDS011;73331;48.168;20.776;2023-11-18T00:38:19;3.20;;;2.33;;
83404;SDS011;73331;48.168;20.776;2023-11-18T00:39:50;4.95;;;2.55;;
83404;SDS011;73331;48.168;20.776;2023-11-18T00:41:20;3.55;;;1.90;;
83404;SDS011;73331;48.168;20.776;2023-11-18T00:42:51;3.03;;;1.92;;
83404;SDS011;73331;48.168;20.776;2023-11-18T00:44:22;5.63;;;2.05;;
83404;SDS011;73331;48.168;20.776;2023-11-18T00:45:53;4.78;;;2.65;;
83404;SDS011;73331;48.168;20.776;2023-11-18T00:47:24;3.35;;;1.92;;
83404;SDS011;73331;48.168;20.776;2023-11-18T00:48:55;4.43;;;2.20;;
83404;SDS011;73331;48.168;20.776;2023-11-18T00:50:28;5.22;;;3.17;;
83404;SDS011;73331;48.168;20.776;2023-11-18T00:51:58;1.95;;;1.08;;
83404;SDS011;73331;48.168;20.776;2023-11-18T00:53:29;5.38;;;2.20;;
83404;SDS011;73331;48.168;20.776;2023-11-18T00:55:00;4.22;;;2.63;;
83404;SDS011;73331;48.168;20.776;2023-11-18T00:56:31;3.17;;;1.98;;
83404;SDS011;73331;48.168;20.776;2023-11-18T00:58:02;4.50;;;2.42;;
83404;SDS011;73331;48.168;20.776;2023-11-18T00:59:33;3.55;;;2.17;;
83404;SDS011;73331;48.168;20.776;2023-11-18T01:01:04;4.07;;;2.13;;
83404;SDS011;73331;48.168;20.776;2023-11-18T01:02:36;4.30;;;2.65;;
83404;SDS011;73331;48.168;20.776;2023-11-18T01:04:09;4.97;;;2.70;;
83404;SDS011;73331;48.168;20.776;2023-11-18T01:05:39;5.63;;;3.00;;
83404;SDS011;73331;48.168;20.776;2023-11-18T01:07:11;4.88;;;2.63;;
83404;SDS011;73331;48.168;20.776;2023-11-18T01:08:45;4.10;;;2.15;;
83404;SDS011;73331;48.168;20.776;2023-11-18T01:10:16;4.78;;;2.80;;
83404;SDS011;73331;48.168;20.776;2023-11-18T01:11:49;8.82;;;3.08;;
83404;SDS011;73331;48.168;20.776;2023-11-18T01:13:20;5.97;;;2.58;;
83404;SDS011;73331;48.168;20.776;2023-11-18T01:14:50;5.25;;;2.70;;
83404;SDS011;73331;48.168;20.776;2023-11-18T01:16:21;4.38;;;2.58;;
83404;SDS011;73331;48.168;20.776;2023-11-18T01:17:52;5.43;;;3.13;;
83404;SDS011;73331;48.168;20.776;2023-11-18T01:19:23;4.47;;;2.85;;
83404;SDS011;73331;48.168;20.776;2023-11-18T01:20:53;4.55;;;2.65;;
83404;SDS011;73331;48.168;20.776;2023-11-18T01:22:24;6.40;;;3.03;;
83404;SDS011;73331;48.168;20.776;2023-11-18T01:23:55;5.65;;;2.85;;
83404;SDS011;73331;48.168;20.776;2023-11-18T01:25:26;4.68;;;3.08;;
83404;SDS011;73331;48.168;20.776;2023-11-18T01:26:57;5.05;;;2.70;;
83404;SDS011;73331;48.168;20.776;2023-11-18T01:30:01;5.10;;;2.28;;
83404;SDS011;73331;48.168;20.776;2023-11-18T01:31:32;4.47;;;2.13;;
83404;SDS011;73331;48.168;20.776;2023-11-18T01:33:03;6.18;;;2.90;;
83404;SDS011;73331;48.168;20.776;2023-11-18T01:34:35;5.47;;;2.67;;
83404;SDS011;73331;48.168;20.776;2023-11-18T01:36:08;6.22;;;2.67;;
83404;SDS011;73331;48.168;20.776;2023-11-18T01:37:39;3.85;;;2.30;;
83404;SDS011;73331;48.168;20.776;2023-11-18T01:39:10;4.90;;;2.95;;
83404;SDS011;73331;48.168;20.776;2023-11-18T01:40:43;3.83;;;2.63;;
83404;SDS011;73331;48.168;20.776;2023-11-18T01:42:14;4.88;;;2.35;;
83404;SDS011;73331;48.168;20.776;2023-11-18T01:43:45;3.33;;;1.95;;
83404;SDS011;73331;48.168;20.776;2023-11-18T01:45:17;5.35;;;2.72;;
83404;SDS011;73331;48.168;20.776;2023-11-18T01:46:47;3.78;;;2.30;;
83404;SDS011;73331;48.168;20.776;2023-11-18T01:48:19;3.88;;;2.20;;
83404;SDS011;73331;48.168;20.776;2023-11-18T01:49:52;4.18;;;2.28;;
83404;SDS011;73331;48.168;20.776;2023-11-18T01:51:23;3.67;;;1.95;;
83404;SDS011;73331;48.168;20.776;2023-11-18T01:52:54;2.40;;;1.60;;
83404;SDS011;73331;48.168;20.776;2023-11-18T01:54:25;3.70;;;2.13;;
83404;SDS011;73331;48.168;20.776;2023-11-18T01:55:56;3.35;;;1.75;;
83404;SDS011;73331;48.168;20.776;2023-11-18T01:57:29;4.90;;;2.20;;
83404;SDS011;73331;48.168;20.776;2023-11-18T01:59:00;3.97;;;2.08;;
83404;SDS011;73331;48.168;20.776;2023-11-18T02:00:35;4.45;;;2.42;;
83404;SDS011;73331;48.168;20.776;2023-11-18T02:02:10;3.47;;;1.92;;
83404;SDS011;73331;48.168;20.776;2023-11-18T02:03:41;4.35;;;2.10;;
83404;SDS011;73331;48.168;20.776;2023-11-18T02:05:12;4.65;;;2.15;;
83404;SDS011;73331;48.168;20.776;2023-11-18T02:06:43;6.05;;;3.13;;
83404;SDS011;73331;48.168;20.776;2023-11-18T02:08:15;3.47;;;2.05;;
83404;SDS011;73331;48.168;20.776;2023-11-18T02:09:45;3.92;;;2.25;;
83404;SDS011;73331;48.168;20.776;2023-11-18T02:12:57;4.05;;;2.20;;
83404;SDS011;73331;48.168;20.776;2023-11-18T02:14:40;2.78;;;1.73;;
83404;SDS011;73331;48.168;20.776;2023-11-18T02:16:12;2.75;;;1.50;;
83404;SDS011;73331;48.168;20.776;2023-11-18T02:17:42;2.45;;;1.88;;
83404;SDS011;73331;48.168;20.776;2023-11-18T02:19:21;2.67;;;1.73;;
83404;SDS011;73331;48.168;20.776;2023-11-18T02:20:55;2.03;;;1.38;;
83404;SDS011;73331;48.168;20.776;2023-11-18T02:22:29;2.25;;;1.42;;
83404;SDS011;73331;48.168;20.776;2023-11-18T02:24:00;3.05;;;1.65;;
83404;SDS011;73331;48.168;20.776;2023-11-18T02:25:32;2.35;;;1.42;;
83404;SDS011;73331;48.168;20.776;2023-11-18T02:27:04;3.45;;;1.65;;
83404;SDS011;73331;48.168;20.776;2023-11-18T02:28:41;7.00;;;1.35;;
83404;SDS011;73331;48.168;20.776;2023-11-18T02:30:13;2.95;;;1.38;;
83404;SDS011;73331;48.168;20.776;2023-11-18T02:31:46;2.78;;;1.75;;
83404;SDS011;73331;48.168;20.776;2023-11-18T02:33:24;1.88;;;1.50;;
83404;SDS011;73331;48.168;20.776;2023-11-18T02:35:37;2.50;;;1.58;;
83404;SDS011;73331;48.168;20.776;2023-11-18T02:37:05;2.33;;;1.52;;
83404;SDS011;73331;48.168;20.776;2023-11-18T02:40:11;2.70;;;1.50;;
83404;SDS011;73331;48.168;20.776;2023-11-18T02:41:45;3.78;;;2.17;;
83404;SDS011;73331;48.168;20.776;2023-11-18T02:43:18;2.35;;;1.80;;
83404;SDS011;73331;48.168;20.776;2023-11-18T02:44:49;1.83;;;1.45;;
83404;SDS011;73331;48.168;20.776;2023-11-18T02:46:29;3.35;;;1.52;;
83404;SDS011;73331;48.168;20.776;2023-11-18T02:48:00;2.63;;;1.40;;
83404;SDS011;73331;48.168;20.776;2023-11-18T02:49:31;3.67;;;1.85;;
83404;SDS011;73331;48.168;20.776;2023-11-18T02:51:04;3.55;;;1.50;;
83404;SDS011;73331;48.168;20.776;2023-11-18T02:52:38;2.00;;;1.38;;
83404;SDS011;73331;48.168;20.776;2023-11-18T02:54:09;1.25;;;0.88;;
83404;SDS011;73331;48.168;20.776;2023-11-18T02:55:40;3.25;;;1.30;;
83404;SDS011;73331;48.168;20.776;2023-11-18T02:57:11;2.13;;;1.27;;
83404;SDS011;73331;48.168;20.776;2023-11-18T02:58:44;1.52;;;1.02;;
83404;SDS011;73331;48.168;20.776;2023-11-18T03:00:15;1.60;;;0.90;;
83404;SDS011;73331;48.168;20.776;2023-11-18T03:01:54;2.05;;;1.42;;
83404;SDS011;73331;48.168;20.776;2023-11-18T03:03:25;3.33;;;1.70;;
83404;SDS011;73331;48.168;20.776;2023-11-18T03:04:57;1.10;;;0.75;;
83404;SDS011;73331;48.168;20.776;2023-11-18T03:06:28;3.20;;;1.67;;
83404;SDS011;73331;48.168;20.776;2023-11-18T03:07:59;1.35;;;1.08;;
83404;SDS011;73331;48.168;20.776;2023-11-18T03:09:30;2.08;;;1.42;;
83404;SDS011;73331;48.168;20.776;2023-11-18T03:11:04;1.95;;;1.33;;
83404;SDS011;73331;48.168;20.776;2023-11-18T03:12:35;1.85;;;1.30;;
83404;SDS011;73331;48.168;20.776;2023-11-18T03:14:06;2.45;;;1.33;;
83404;SDS011;73331;48.168;20.776;2023-11-18T03:15:39;1.48;;;1.20;;
83404;SDS011;73331;48.168;20.776;2023-11-18T03:17:10;3.08;;;1.42;;
83404;SDS011;73331;48.168;20.776;2023-11-18T03:18:41;2.00;;;1.23;;
83404;SDS011;73331;48.168;20.776;2023-11-18T03:20:12;2.00;;;1.20;;
83404;SDS011;73331;48.168;20.776;2023-11-18T03:21:53;2.17;;;1.20;;
83404;SDS011;73331;48.168;20.776;2023-11-18T03:23:23;1.50;;;1.20;;
83404;SDS011;73331;48.168;20.776;2023-11-18T03:24:54;1.73;;;1.05;;
83404;SDS011;73331;48.168;20.776;2023-11-18T03:26:24;1.92;;;1.40;;
83404;SDS011;73331;48.168;20.776;2023-11-18T03:27:56;3.05;;;1.92;;
83404;SDS011;73331;48.168;20.776;2023-11-18T03:29:26;2.33;;;1.55;;
83404;SDS011;73331;48.168;20.776;2023-11-18T03:30:57;1.02;;;0.90;;
83404;SDS011;73331;48.168;20.776;2023-11-18T03:32:28;3.28;;;1.70;;
83404;SDS011;73331;48.168;20.776;2023-11-18T03:33:58;1.88;;;1.30;;
83404;SDS011;73331;48.168;20.776;2023-11-18T03:35:29;2.75;;;1.35;;
83404;SDS011;73331;48.168;20.776;2023-11-18T03:37:00;3.65;;;1.33;;
83404;SDS011;73331;48.168;20.776;2023-11-18T03:38:31;2.70;;;1.45;;
83404;SDS011;73331;48.168;20.776;2023-11-18T03:40:02;1.67;;;1.30;;
83404;SDS011;73331;48.168;20.776;2023-11-18T03:41:33;1.75;;;1.10;;
83404;SDS011;73331;48.168;20.776;2023-11-18T03:43:03;5.88;;;1.25;;
83404;SDS011;73331;48.168;20.776;2023-11-18T03:44:34;2.38;;;1.30;;
83404;SDS011;73331;48.168;20.776;2023-11-18T03:46:06;1.63;;;1.17;;
83404;SDS011;73331;48.168;20.776;2023-11-18T03:47:37;2.92;;;1.13;;
83404;SDS011;73331;48.168;20.776;2023-11-18T03:49:08;2.47;;;1.40;;
83404;SDS011;73331;48.168;20.776;2023-11-18T03:50:40;2.33;;;1.23;;
83404;SDS011;73331;48.168;20.776;2023-11-18T03:52:11;0.98;;;0.77;;
83404;SDS011;73331;48.168;20.776;2023-11-18T03:53:42;2.35;;;1.20;;
83404;SDS011;73331;48.168;20.776;2023-11-18T03:55:13;2.80;;;1.50;;
83404;SDS011;73331;48.168;20.776;2023-11-18T03:56:43;2.13;;;1.42;;
83404;SDS011;73331;48.168;20.776;2023-11-18T03:58:14;2.70;;;1.50;;
83404;SDS011;73331;48.168;20.776;2023-11-18T03:59:45;1.42;;;1.23;;
83404;SDS011;73331;48.168;20.776;2023-11-18T04:01:21;3.47;;;1.30;;
83404;SDS011;73331;48.168;20.776;2023-11-18T04:02:57;2.63;;;1.42;;
83404;SDS011;73331;48.168;20.776;2023-11-18T04:04:28;1.85;;;1.20;;
83404;SDS011;73331;48.168;20.776;2023-11-18T04:05:59;2.35;;;1.20;;
83404;SDS011;73331;48.168;20.776;2023-11-18T04:07:30;2.10;;;1.27;;
83404;SDS011;73331;48.168;20.776;2023-11-18T04:09:00;2.33;;;1.20;;
83404;SDS011;73331;48.168;20.776;2023-11-18T04:10:31;1.95;;;1.27;;
83404;SDS011;73331;48.168;20.776;2023-11-18T04:12:02;4.57;;;1.60;;
83404;SDS011;73331;48.168;20.776;2023-11-18T04:13:33;2.00;;;0.88;;
83404;SDS011;73331;48.168;20.776;2023-11-18T04:15:04;1.80;;;1.13;;
83404;SDS011;73331;48.168;20.776;2023-11-18T04:16:35;1.98;;;1.15;;
83404;SDS011;73331;48.168;20.776;2023-11-18T04:18:08;2.25;;;0.98;;
83404;SDS011;73331;48.168;20.776;2023-11-18T04:19:38;2.03;;;1.08;;
83404;SDS011;73331;48.168;20.776;2023-11-18T04:21:09;2.10;;;1.20;;
83404;SDS011;73331;48.168;20.776;2023-11-18T04:22:41;1.92;;;1.08;;
83404;SDS011;73331;48.168;20.776;2023-11-18T04:24:12;2.95;;;1.75;;
83404;SDS011;73331;48.168;20.776;2023-11-18T04:25:42;3.35;;;1.77;;
83404;SDS011;73331;48.168;20.776;2023-11-18T04:27:13;2.53;;;1.30;;
83404;SDS011;73331;48.168;20.776;2023-11-18T04:28:44;2.53;;;1.27;;
83404;SDS011;73331;48.168;20.776;2023-11-18T04:30:14;1.17;;;0.80;;
83404;SDS011;73331;48.168;20.776;2023-11-18T04:31:45;2.15;;;1.30;;
83404;SDS011;73331;48.168;20.776;2023-11-18T04:33:16;2.50;;;1.38;;
83404;SDS011;73331;48.168;20.776;2023-11-18T04:34:46;3.00;;;1.48;;
83404;SDS011;73331;48.168;20.776;2023-11-18T04:36:19;2.75;;;1.40;;
83404;SDS011;73331;48.168;20.776;2023-11-18T04:37:52;2.85;;;1.30;;
83404;SDS011;73331;48.168;20.776;2023-11-18T04:39:22;2.25;;;1.00;;
83404;SDS011;73331;48.168;20.776;2023-11-18T04:40:55;2.40;;;1.48;;
83404;SDS011;73331;48.168;20.776;2023-11-18T04:42:26;1.95;;;1.10;;
83404;SDS011;73331;48.168;20.776;2023-11-18T04:43:59;1.77;;;1.05;;
83404;SDS011;73331;48.168;20.776;2023-11-18T04:45:30;1.67;;;1.15;;
83404;SDS011;73331;48.168;20.776;2023-11-18T04:47:01;1.98;;;1.20;;
83404;SDS011;73331;48.168;20.776;2023-11-18T04:48:32;2.50;;;1.73;;
83404;SDS011;73331;48.168;20.776;2023-11-18T04:50:03;1.70;;;1.10;;
83404;SDS011;73331;48.168;20.776;2023-11-18T04:51:34;2.95;;;1.05;;
83404;SDS011;73331;48.168;20.776;2023-11-18T04:53:05;1.15;;;0.80;;
83404;SDS011;73331;48.168;20.776;2023-11-18T04:54:38;1.98;;;1.58;;
83404;SDS011;73331;48.168;20.776;2023-11-18T04:56:09;1.65;;;1.38;;
83404;SDS011;73331;48.168;20.776;2023-11-18T04:57:40;2.00;;;1.30;;
83404;SDS011;73331;48.168;20.776;2023-11-18T04:59:11;2.45;;;1.58;;
83404;SDS011;73331;48.168;20.776;2023-11-18T05:00:42;1.40;;;1.10;;
83404;SDS011;73331;48.168;20.776;2023-11-18T05:02:13;2.88;;;1.52;;
83404;SDS011;73331;48.168;20.776;2023-11-18T05:03:44;4.22;;;2.30;;
83404;SDS011;73331;48.168;20.776;2023-11-18T05:05:15;2.97;;;2.25;;
83404;SDS011;73331;48.168;20.776;2023-11-18T05:06:46;4.30;;;1.73;;
83404;SDS011;73331;48.168;20.776;2023-11-18T05:08:18;5.53;;;2.15;;
83404;SDS011;73331;48.168;20.776;2023-11-18T05:09:50;3.40;;;2.15;;
83404;SDS011;73331;48.168;20.776;2023-11-18T05:11:20;3.25;;;1.88;;
83404;SDS011;73331;48.168;20.776;2023-11-18T05:12:51;4.75;;;2.45;;
83404;SDS011;73331;48.168;20.776;2023-11-18T05:14:26;5.30;;;2.45;;
83404;SDS011;73331;48.168;20.776;2023-11-18T05:15:57;2.75;;;1.80;;
83404;SDS011;73331;48.168;20.776;2023-11-18T05:17:27;4.15;;;2.28;;
83404;SDS011;73331;48.168;20.776;2023-11-18T05:18:58;3.47;;;1.60;;
83404;SDS011;73331;48.168;20.776;2023-11-18T05:20:28;3.75;;;2.53;;
83404;SDS011;73331;48.168;20.776;2023-11-18T05:21:59;4.47;;;2.30;;
83404;SDS011;73331;48.168;20.776;2023-11-18T05:23:30;5.85;;;2.10;;
83404;SDS011;73331;48.168;20.776;2023-11-18T05:25:02;3.22;;;2.33;;
83404;SDS011;73331;48.168;20.776;2023-11-18T05:26:34;3.50;;;1.65;;
83404;SDS011;73331;48.168;20.776;2023-11-18T05:28:05;3.45;;;2.08;;
83404;SDS011;73331;48.168;20.776;2023-11-18T05:29:38;4.45;;;1.92;;
83404;SDS011;73331;48.168;20.776;2023-11-18T05:31:11;7.60;;;2.42;;
83404;SDS011;73331;48.168;20.776;2023-11-18T05:32:42;5.07;;;2.80;;
83404;SDS011;73331;48.168;20.776;2023-11-18T05:34:13;4.38;;;2.58;;
83404;SDS011;73331;48.168;20.776;2023-11-18T05:35:44;4.22;;;2.08;;
83404;SDS011;73331;48.168;20.776;2023-11-18T05:37:21;6.03;;;2.60;;
83404;SDS011;73331;48.168;20.776;2023-11-18T05:38:53;4.32;;;2.17;;
83404;SDS011;73331;48.168;20.776;2023-11-18T05:40:24;4.43;;;1.73;;
83404;SDS011;73331;48.168;20.776;2023-11-18T05:41:55;4.93;;;2.65;;
83404;SDS011;73331;48.168;20.776;2023-11-18T05:43:27;4.00;;;2.50;;
83404;SDS011;73331;48.168;20.776;2023-11-18T05:45:06;2.63;;;1.63;;
83404;SDS011;73331;48.168;20.776;2023-11-18T05:46:37;5.82;;;2.50;;
83404;SDS011;73331;48.168;20.776;2023-11-18T05:48:09;4.22;;;2.50;;
83404;SDS011;73331;48.168;20.776;2023-11-18T05:49:39;4.80;;;2.55;;
83404;SDS011;73331;48.168;20.776;2023-11-18T05:51:11;4.35;;;2.17;;
83404;SDS011;73331;48.168;20.776;2023-11-18T05:52:42;4.30;;;2.40;;
83404;SDS011;73331;48.168;20.776;2023-11-18T05:54:12;6.75;;;2.50;;
83404;SDS011;73331;48.168;20.776;2023-11-18T05:55:43;4.60;;;2.20;;
83404;SDS011;73331;48.168;20.776;2023-11-18T05:57:17;3.03;;;1.70;;
83404;SDS011;73331;48.168;20.776;2023-11-18T05:58:49;5.25;;;2.20;;
83404;SDS011;73331;48.168;20.776;2023-11-18T06:00:19;2.42;;;1.75;;
83404;SDS011;73331;48.168;20.776;2023-11-18T06:01:51;4.43;;;2.13;;
83404;SDS011;73331;48.168;20.776;2023-11-18T06:03:22;4.72;;;1.80;;
83404;SDS011;73331;48.168;20.776;2023-11-18T06:04:53;4.72;;;1.52;;
83404;SDS011;73331;48.168;20.776;2023-11-18T06:06:24;5.72;;;2.40;;
83404;SDS011;73331;48.168;20.776;2023-11-18T06:07:56;3.95;;;2.38;;
83404;SDS011;73331;48.168;20.776;2023-11-18T06:09:29;4.95;;;2.45;;
83404;SDS011;73331;48.168;20.776;2023-11-18T06:11:00;7.07;;;2.83;;
83404;SDS011;73331;48.168;20.776;2023-11-18T06:12:35;5.43;;;2.33;;
83404;SDS011;73331;48.168;20.776;2023-11-18T06:14:07;4.75;;;2.58;;
83404;SDS011;73331;48.168;20.776;2023-11-18T06:15:38;6.65;;;3.42;;
83404;SDS011;73331;48.168;20.776;2023-11-18T06:17:09;7.95;;;3.47;;
83404;SDS011;73331;48.168;20.776;2023-11-18T06:18:43;5.68;;;2.65;;
83404;SDS011;73331;48.168;20.776;2023-11-18T06:20:14;4.57;;;2.13;;
83404;SDS011;73331;48.168;20.776;2023-11-18T06:21:47;4.57;;;2.35;;
83404;SDS011;73331;48.168;20.776;2023-11-18T06:23:18;5.03;;;2.50;;
83404;SDS011;73331;48.168;20.776;2023-11-18T06:24:49;4.90;;;2.92;;
83404;SDS011;73331;48.168;20.776;2023-11-18T06:26:22;4.60;;;2.83;;
83404;SDS011;73331;48.168;20.776;2023-11-18T06:27:54;6.57;;;3.30;;
83404;SDS011;73331;48.168;20.776;2023-11-18T06:29:25;5.20;;;2.80;;
83404;SDS011;73331;48.168;20.776;2023-11-18T06:30:55;5.68;;;3.33;;
83404;SDS011;73331;48.168;20.776;2023-11-18T06:32:26;6.20;;;3.67;;
83404;SDS011;73331;48.168;20.776;2023-11-18T06:33:57;5.25;;;2.95;;
83404;SDS011;73331;48.168;20.776;2023-11-18T06:35:28;4.50;;;2.65;;
83404;SDS011;73331;48.168;20.776;2023-11-18T06:36:59;4.22;;;2.40;;
83404;SDS011;73331;48.168;20.776;2023-11-18T06:38:30;6.07;;;2.95;;
83404;SDS011;73331;48.168;20.776;2023-11-18T06:40:01;4.78;;;2.70;;
83404;SDS011;73331;48.168;20.776;2023-11-18T06:41:32;4.97;;;2.20;;
83404;SDS011;73331;48.168;20.776;2023-11-18T06:43:08;5.38;;;2.55;;
83404;SDS011;73331;48.168;20.776;2023-11-18T06:44:41;6.85;;;3.13;;
83404;SDS011;73331;48.168;20.776;2023-11-18T06:46:11;6.50;;;3.58;;
83404;SDS011;73331;48.168;20.776;2023-11-18T06:47:44;6.32;;;2.90;;
83404;SDS011;73331;48.168;20.776;2023-11-18T06:49:15;4.90;;;2.63;;
83404;SDS011;73331;48.168;20.776;2023-11-18T06:50:46;8.65;;;3.97;;
83404;SDS011;73331;48.168;20.776;2023-11-18T06:52:17;12.15;;;6.10;;
83404;SDS011;73331;48.168;20.776;2023-11-18T06:53:49;11.50;;;5.70;;
83404;SDS011;73331;48.168;20.776;2023-11-18T06:55:25;10.85;;;5.70;;
83404;SDS011;73331;48.168;20.776;2023-11-18T06:56:57;7.65;;;4.05;;
83404;SDS011;73331;48.168;20.776;2023-11-18T06:58:27;7.65;;;4.82;;
83404;SDS011;73331;48.168;20.776;2023-11-18T06:59:58;6.78;;;4.22;;
83404;SDS011;73331;48.168;20.776;2023-11-18T07:01:29;4.68;;;3.00;;
83404;SDS011;73331;48.168;20.776;2023-11-18T07:04:31;5.43;;;3.10;;
83404;SDS011;73331;48.168;20.776;2023-11-18T07:06:03;11.52;;;6.80;;
83404;SDS011;73331;48.168;20.776;2023-11-18T07:07:35;7.50;;;3.95;;
83404;SDS011;73331;48.168;20.776;2023-11-18T07:09:07;7.20;;;4.22;;
83404;SDS011;73331;48.168;20.776;2023-11-18T07:10:43;7.22;;;5.30;;
83404;SDS011;73331;48.168;20.776;2023-11-18T07:12:14;4.35;;;2.72;;
83404;SDS011;73331;48.168;20.776;2023-11-18T07:13:45;7.68;;;3.40;;
83404;SDS011;73331;48.168;20.776;2023-11-18T07:15:16;7.03;;;3.55;;
83404;SDS011;73331;48.168;20.776;2023-11-18T07:16:46;7.65;;;2.70;;
83404;SDS011;73331;48.168;20.776;2023-11-18T07:18:17;5.50;;;3.30;;
83404;SDS011;73331;48.168;20.776;2023-11-18T07:19:48;5.32;;;2.90;;
83404;SDS011;73331;48.168;20.776;2023-11-18T07:21:19;5.25;;;2.58;;
83404;SDS011;73331;48.168;20.776;2023-11-18T07:22:50;6.35;;;2.92;;
83404;SDS011;73331;48.168;20.776;2023-11-18T07:24:21;17.40;;;11.05;;
83404;SDS011;73331;48.168;20.776;2023-11-18T07:25:51;14.65;;;6.70;;
83404;SDS011;73331;48.168;20.776;2023-11-18T07:27:23;8.43;;;4.07;;
83404;SDS011;73331;48.168;20.776;2023-11-18T07:28:54;10.93;;;5.90;;
83404;SDS011;73331;48.168;20.776;2023-11-18T07:30:26;31.58;;;14.63;;
83404;SDS011;73331;48.168;20.776;2023-11-18T07:31:56;32.88;;;14.93;;
83404;SDS011;73331;48.168;20.776;2023-11-18T07:33:27;34.72;;;16.17;;
83404;SDS011;73331;48.168;20.776;2023-11-18T07:34:58;18.10;;;8.88;;
83404;SDS011;73331;48.168;20.776;2023-11-18T07:36:28;21.13;;;11.98;;
83404;SDS011;73331;48.168;20.776;2023-11-18T07:37:59;35.58;;;20.55;;
83404;SDS011;73331;48.168;20.776;2023-11-18T07:39:30;24.52;;;14.23;;
83404;SDS011;73331;48.168;20.776;2023-11-18T07:41:14;10.13;;;6.32;;
83404;SDS011;73331;48.168;20.776;2023-11-18T07:42:54;7.30;;;4.25;;
83404;SDS011;73331;48.168;20.776;2023-11-18T07:44:26;6.93;;;3.90;;
83404;SDS011;73331;48.168;20.776;2023-11-18T07:45:56;6.32;;;4.82;;
83404;SDS011;73331;48.168;20.776;2023-11-18T07:47:27;7.75;;;4.32;;
83404;SDS011;73331;48.168;20.776;2023-11-18T07:48:58;10.57;;;4.57;;
83404;SDS011;73331;48.168;20.776;2023-11-18T07:50:29;8.85;;;5.03;;
83404;SDS011;73331;48.168;20.776;2023-11-18T07:51:59;10.70;;;4.30;;
83404;SDS011;73331;48.168;20.776;2023-11-18T07:53:30;10.63;;;4.03;;
83404;SDS011;73331;48.168;20.776;2023-11-18T07:55:02;5.85;;;2.40;;
83404;SDS011;73331;48.168;20.776;2023-11-18T07:56:34;7.25;;;3.40;;
83404;SDS011;73331;48.168;20.776;2023-11-18T07:58:07;6.60;;;3.03;;
83404;SDS011;73331;48.168;20.776;2023-11-18T07:59:40;4.45;;;2.05;;
83404;SDS011;73331;48.168;20.776;2023-11-18T08:01:11;4.32;;;2.72;;
83404;SDS011;73331;48.168;20.776;2023-11-18T08:02:42;4.78;;;2.55;;
83404;SDS011;73331;48.168;20.776;2023-11-18T08:05:46;5.18;;;3.22;;
83404;SDS011;73331;48.168;20.776;2023-11-18T08:07:16;6.72;;;3.95;;
83404;SDS011;73331;48.168;20.776;2023-11-18T08:08:47;9.60;;;3.70;;
83404;SDS011;73331;48.168;20.776;2023-11-18T08:10:18;9.57;;;4.43;;
83404;SDS011;73331;48.168;20.776;2023-11-18T08:11:48;34.58;;;6.88;;
83404;SDS011;73331;48.168;20.776;2023-11-18T08:13:19;38.40;;;10.60;;
83404;SDS011;73331;48.168;20.776;2023-11-18T08:14:50;49.58;;;16.38;;
83404;SDS011;73331;48.168;20.776;2023-11-18T08:16:21;46.83;;;18.77;;
83404;SDS011;73331;48.168;20.776;2023-11-18T08:17:54;27.77;;;12.65;;
83404;SDS011;73331;48.168;20.776;2023-11-18T08:19:25;31.30;;;10.90;;
83404;SDS011;73331;48.168;20.776;2023-11-18T08:20:56;13.27;;;6.15;;
83404;SDS011;73331;48.168;20.776;2023-11-18T08:22:27;14.80;;;6.85;;
83404;SDS011;73331;48.168;20.776;2023-11-18T08:23:58;9.50;;;4.75;;
83404;SDS011;73331;48.168;20.776;2023-11-18T08:25:30;10.38;;;5.63;;
83404;SDS011;73331;48.168;20.776;2023-11-18T08:27:05;12.63;;;6.65;;
83404;SDS011;73331;48.168;20.776;2023-11-18T08:28:36;12.15;;;6.53;;
83404;SDS011;73331;48.168;20.776;2023-11-18T08:30:07;21.90;;;12.23;;
83404;SDS011;73331;48.168;20.776;2023-11-18T08:31:42;12.48;;;8.13;;
83404;SDS011;73331;48.168;20.776;2023-11-18T08:33:14;9.35;;;5.07;;
83404;SDS011;73331;48.168;20.776;2023-11-18T08:34:45;9.02;;;5.10;;
83404;SDS011;73331;48.168;20.776;2023-11-18T08:36:16;10.48;;;5.95;;
83404;SDS011;73331;48.168;20.776;2023-11-18T08:37:47;10.18;;;5.25;;
83404;SDS011;73331;48.168;20.776;2023-11-18T08:39:18;8.77;;;5.32;;
83404;SDS011;73331;48.168;20.776;2023-11-18T08:40:50;15.85;;;8.18;;
83404;SDS011;73331;48.168;20.776;2023-11-18T08:42:21;10.70;;;5.60;;
83404;SDS011;73331;48.168;20.776;2023-11-18T08:43:52;7.22;;;4.32;;
83404;SDS011;73331;48.168;20.776;2023-11-18T08:45:26;8.65;;;4.47;;
83404;SDS011;73331;48.168;20.776;2023-11-18T08:46:59;8.20;;;4.07;;
83404;SDS011;73331;48.168;20.776;2023-11-18T08:48:31;4.93;;;2.78;;
83404;SDS011;73331;48.168;20.776;2023-11-18T08:50:04;6.40;;;2.90;;
83404;SDS011;73331;48.168;20.776;2023-11-18T08:51:42;5.43;;;3.35;;
83404;SDS011;73331;48.168;20.776;2023-11-18T08:53:12;5.85;;;3.03;;
83404;SDS011;73331;48.168;20.776;2023-11-18T08:54:43;4.93;;;2.80;;
83404;SDS011;73331;48.168;20.776;2023-11-18T08:56:32;7.00;;;3.45;;
83404;SDS011;73331;48.168;20.776;2023-11-18T08:59:45;6.43;;;3.00;;
83404;SDS011;73331;48.168;20.776;2023-11-18T09:01:16;6.20;;;2.90;;
83404;SDS011;73331;48.168;20.776;2023-11-18T09:02:47;5.22;;;3.30;;
83404;SDS011;73331;48.168;20.776;2023-11-18T09:04:17;4.90;;;2.80;;
83404;SDS011;73331;48.168;20.776;2023-11-18T09:05:51;7.43;;;2.97;;
83404;SDS011;73331;48.168;20.776;2023-11-18T09:07:34;8.85;;;3.55;;
83404;SDS011;73331;48.168;20.776;2023-11-18T09:09:07;5.93;;;3.22;;
83404;SDS011;73331;48.168;20.776;2023-11-18T09:10:41;12.63;;;4.07;;
83404;SDS011;73331;48.168;20.776;2023-11-18T09:12:13;6.88;;;3.42;;
83404;SDS011;73331;48.168;20.776;2023-11-18T09:13:45;8.02;;;3.83;;